createdAt,value
2022-11-30T00:01:13.615Z,85.37
2022-11-30T00:03:40.953Z,84.16
2022-11-30T00:06:10.439Z,83.66
2022-11-30T00:08:37.765Z,92.13
2022-11-30T00:11:15.770Z,87.39
2022-11-30T00:13:42.630Z,86.21
2022-11-30T00:16:09.836Z,84.48
2022-11-30T00:18:37.483Z,86.82
2022-11-30T00:21:06.285Z,86.80
2022-11-30T00:23:34.203Z,90.71
2022-11-30T00:26:06.380Z,90.18
2022-11-30T00:28:34.262Z,94.96
2022-11-30T00:31:03.103Z,96.15
2022-11-30T00:33:32.956Z,96.04
2022-11-30T00:36:01.529Z,97.13
2022-11-30T00:38:28.500Z,96.84
2022-11-30T00:40:56.794Z,96.20
2022-11-30T00:43:23.994Z,96.86
2022-11-30T00:45:51.011Z,93.87
2022-11-30T00:48:18.161Z,95.40
2022-11-30T00:50:45.079Z,95.87
2022-11-30T00:53:11.949Z,96.08
2022-11-30T00:55:38.905Z,100.00
2022-11-30T00:58:07.625Z,100.00
2022-11-30T01:00:34.853Z,100.00
2022-11-30T01:03:03.005Z,100.00
2022-11-30T01:05:29.961Z,100.00
2022-11-30T01:08:00.299Z,97.81
2022-11-30T01:10:27.277Z,96.39
2022-11-30T01:12:54.445Z,98.03
2022-11-30T01:15:21.309Z,99.83
2022-11-30T01:17:48.526Z,99.90
2022-11-30T01:20:15.469Z,94.43
2022-11-30T01:22:42.376Z,92.54
2022-11-30T01:25:09.541Z,90.02
2022-11-30T01:27:36.463Z,92.36
2022-11-30T01:30:04.042Z,96.45
2022-11-30T01:32:30.970Z,98.74
2022-11-30T01:34:57.853Z,100.00
2022-11-30T01:37:24.715Z,97.31
2022-11-30T01:39:51.614Z,97.66
2022-11-30T01:42:20.101Z,96.62
2022-11-30T01:45:06.176Z,94.36
2022-11-30T01:47:37.236Z,92.70
2022-11-30T01:50:11.684Z,95.13
2022-11-30T01:52:56.264Z,96.53
2022-11-30T01:55:29.475Z,91.95
2022-11-30T01:58:20.728Z,91.71
2022-11-30T02:00:48.366Z,91.10
2022-11-30T02:03:21.882Z,91.88
2022-11-30T02:05:49.186Z,92.92
2022-11-30T02:08:16.351Z,96.25
2022-11-30T02:10:45.737Z,96.48
2022-11-30T02:13:29.414Z,94.03
2022-11-30T02:16:08.395Z,92.92
2022-11-30T02:19:00.194Z,91.12
2022-11-30T02:21:41.858Z,89.78
2022-11-30T02:24:27.278Z,93.78
2022-11-30T02:27:12.763Z,96.69
2022-11-30T02:29:46.395Z,94.48
2022-11-30T02:32:36.058Z,96.10
2022-11-30T02:35:04.135Z,95.80
2022-11-30T02:37:32.637Z,95.74
2022-11-30T02:39:59.562Z,95.79
2022-11-30T02:42:26.451Z,93.14
2022-11-30T02:44:53.902Z,88.65
2022-11-30T02:47:41.904Z,92.05
2022-11-30T02:50:08.926Z,89.07
2022-11-30T02:52:36.028Z,88.68
2022-11-30T02:55:10.425Z,91.13
2022-11-30T02:57:37.680Z,89.12
2022-11-30T03:00:08.001Z,86.68
2022-11-30T03:02:35.050Z,86.25
2022-11-30T03:05:02.002Z,87.27
2022-11-30T03:07:28.948Z,85.87
2022-11-30T03:09:56.309Z,83.39
2022-11-30T03:12:23.341Z,83.64
2022-11-30T03:14:50.240Z,81.46
2022-11-30T03:17:17.305Z,82.62
2022-11-30T03:19:44.204Z,86.22
2022-11-30T03:22:11.068Z,85.45
2022-11-30T03:24:37.764Z,85.42
2022-11-30T03:27:04.707Z,83.52
2022-11-30T03:29:31.557Z,80.91
2022-11-30T03:31:58.232Z,81.94
2022-11-30T03:34:27.467Z,81.20
2022-11-30T03:36:54.915Z,84.14
2022-11-30T03:39:21.780Z,81.70
2022-11-30T03:41:48.653Z,82.68
2022-11-30T03:44:15.331Z,84.26
2022-11-30T03:46:42.247Z,86.78
2022-11-30T03:49:09.174Z,86.94
2022-11-30T03:51:36.068Z,87.03
2022-11-30T03:54:02.935Z,88.69
2022-11-30T03:56:29.907Z,89.06
2022-11-30T03:58:56.858Z,89.50
2022-11-30T04:01:24.511Z,85.20
2022-11-30T04:03:52.860Z,84.09
2022-11-30T04:06:21.071Z,87.09
2022-11-30T04:08:48.165Z,84.45
2022-11-30T04:11:14.998Z,82.44
2022-11-30T04:13:41.969Z,80.31
2022-11-30T04:16:09.192Z,80.27
2022-11-30T04:18:37.057Z,77.92
2022-11-30T04:21:04.866Z,78.82
2022-11-30T04:23:36.205Z,80.44
2022-11-30T04:26:08.036Z,82.20
2022-11-30T04:28:35.428Z,82.73
2022-11-30T04:31:03.088Z,80.74
2022-11-30T04:33:30.285Z,81.47
2022-11-30T04:35:59.211Z,82.11
2022-11-30T04:38:26.866Z,79.19
2022-11-30T04:40:54.149Z,78.55
2022-11-30T04:43:21.232Z,79.40
2022-11-30T04:45:48.855Z,80.19
2022-11-30T04:48:16.960Z,80.56
2022-11-30T04:50:44.017Z,78.03
2022-11-30T04:53:11.318Z,77.45
2022-11-30T04:55:38.485Z,81.93
2022-11-30T04:58:06.331Z,79.42
2022-11-30T05:00:33.596Z,79.13
2022-11-30T05:03:00.507Z,78.51
2022-11-30T05:05:27.435Z,76.42
2022-11-30T05:07:58.943Z,75.04
2022-11-30T05:10:27.546Z,75.91
2022-11-30T05:12:54.413Z,75.28
2022-11-30T05:15:21.123Z,76.15
2022-11-30T05:17:48.200Z,76.57
2022-11-30T05:20:15.186Z,77.34
2022-11-30T05:22:42.058Z,73.71
2022-11-30T05:25:09.467Z,76.59
2022-11-30T05:27:36.707Z,74.80
2022-11-30T05:30:04.755Z,74.80
2022-11-30T05:32:31.664Z,75.09
2022-11-30T05:34:58.901Z,74.84
2022-11-30T05:37:26.022Z,75.17
2022-11-30T05:39:52.953Z,75.33
2022-11-30T05:42:19.830Z,73.95
2022-11-30T05:44:48.263Z,72.68
2022-11-30T05:47:15.898Z,72.58
2022-11-30T05:49:43.019Z,73.65
2022-11-30T05:52:09.892Z,73.96
2022-11-30T05:54:36.615Z,74.20
2022-11-30T05:57:03.639Z,74.38
2022-11-30T05:59:30.557Z,72.67
2022-11-30T06:01:57.507Z,69.06
2022-11-30T06:04:24.456Z,70.04
2022-11-30T06:06:55.828Z,69.13
2022-11-30T06:09:23.438Z,69.87
2022-11-30T06:11:50.816Z,69.51
2022-11-30T06:14:17.789Z,70.72
2022-11-30T06:16:45.085Z,70.14
2022-11-30T06:19:12.040Z,69.52
2022-11-30T06:21:38.929Z,68.44
2022-11-30T06:24:06.127Z,71.14
2022-11-30T06:26:33.025Z,68.31
2022-11-30T06:28:59.931Z,67.96
2022-11-30T06:31:27.058Z,68.77
2022-11-30T06:33:57.622Z,68.62
2022-11-30T06:36:24.857Z,69.79
2022-11-30T06:38:51.919Z,71.31
2022-11-30T06:41:18.846Z,70.07
2022-11-30T06:43:45.751Z,68.12
2022-11-30T06:46:12.467Z,67.97
2022-11-30T06:48:39.409Z,68.71
2022-11-30T06:51:07.846Z,69.53
2022-11-30T06:53:35.026Z,69.92
2022-11-30T06:56:10.642Z,69.31
2022-11-30T06:58:41.187Z,73.01
2022-11-30T07:01:10.995Z,73.28
2022-11-30T07:03:38.369Z,73.46
2022-11-30T07:06:10.416Z,72.80
2022-11-30T07:08:37.566Z,72.67
2022-11-30T07:11:05.049Z,75.25
2022-11-30T07:13:31.995Z,73.95
2022-11-30T07:15:58.883Z,76.31
2022-11-30T07:18:31.451Z,77.32
2022-11-30T07:21:03.210Z,75.86
2022-11-30T07:23:56.696Z,77.16
2022-11-30T07:26:25.208Z,77.29
2022-11-30T07:28:58.528Z,77.82
2022-11-30T07:31:30.615Z,75.55
2022-11-30T07:33:58.781Z,78.38
2022-11-30T07:36:27.078Z,77.99
2022-11-30T07:38:53.976Z,77.36
2022-11-30T07:41:20.844Z,74.90
2022-11-30T07:43:47.717Z,73.19
2022-11-30T07:46:14.981Z,73.69
2022-11-30T07:48:42.790Z,76.38
2022-11-30T07:51:15.074Z,73.67
2022-11-30T07:53:42.108Z,74.39
2022-11-30T07:56:11.917Z,74.92
2022-11-30T07:58:39.239Z,73.33
2022-11-30T08:01:14.726Z,74.99
2022-11-30T08:03:41.962Z,73.53
2022-11-30T08:06:17.318Z,74.18
2022-11-30T08:08:45.128Z,76.68
2022-11-30T08:11:14.534Z,79.31
2022-11-30T08:13:41.901Z,77.68
2022-11-30T08:16:17.612Z,78.21
2022-11-30T08:18:44.783Z,78.10
2022-11-30T08:21:13.822Z,80.15
2022-11-30T08:23:42.970Z,77.09
2022-11-30T08:26:13.747Z,76.82
2022-11-30T08:28:41.853Z,76.30
2022-11-30T08:31:13.768Z,76.41
2022-11-30T08:33:41.064Z,77.55
2022-11-30T08:36:20.505Z,75.17
2022-11-30T08:38:48.502Z,75.30
2022-11-30T08:41:20.372Z,77.71
2022-11-30T08:43:47.515Z,76.71
2022-11-30T08:46:43.029Z,77.46
2022-11-30T08:49:20.443Z,77.62
2022-11-30T08:54:36.616Z,74.76
2022-11-30T08:57:03.710Z,72.52
2022-11-30T08:59:33.397Z,70.25
2022-11-30T09:02:00.341Z,67.96
2022-11-30T09:04:27.669Z,67.26
2022-11-30T09:06:59.214Z,65.80
2022-11-30T09:09:26.608Z,67.73
2022-11-30T09:11:53.525Z,66.51
2022-11-30T09:14:20.423Z,69.79
2022-11-30T09:16:47.358Z,66.96
2022-11-30T09:19:14.320Z,68.19
2022-11-30T09:21:44.263Z,70.70
2022-11-30T09:24:14.094Z,66.71
2022-11-30T09:26:40.990Z,66.51
2022-11-30T09:29:07.880Z,66.47
2022-11-30T09:31:34.767Z,68.03
2022-11-30T09:34:01.684Z,68.99
2022-11-30T09:36:29.300Z,66.34
2022-11-30T09:38:57.120Z,64.98
2022-11-30T09:41:29.921Z,65.02
2022-11-30T09:44:15.497Z,63.50
2022-11-30T09:47:18.723Z,62.39
2022-11-30T09:49:46.705Z,62.73
2022-11-30T09:52:20.882Z,63.96
2022-11-30T09:54:48.400Z,64.96
2022-11-30T09:57:18.369Z,65.51
2022-11-30T09:59:55.390Z,64.40
2022-11-30T10:02:27.443Z,64.39
2022-11-30T10:04:54.454Z,60.92
2022-11-30T10:07:52.211Z,62.03
2022-11-30T10:10:34.817Z,59.86
2022-11-30T10:13:23.843Z,61.00
2022-11-30T10:16:08.168Z,61.23
2022-11-30T10:19:05.966Z,58.78
2022-11-30T10:21:42.103Z,58.88
2022-11-30T10:24:46.629Z,58.60
2022-11-30T10:27:18.981Z,60.97
2022-11-30T10:29:45.866Z,58.06
2022-11-30T10:32:18.709Z,59.29
2022-11-30T10:34:49.292Z,58.81
2022-11-30T10:37:28.193Z,60.24
2022-11-30T10:40:10.650Z,57.42
2022-11-30T10:42:52.952Z,58.74
2022-11-30T10:45:23.977Z,59.83
2022-11-30T10:48:05.596Z,58.24
2022-11-30T10:50:32.828Z,59.17
2022-11-30T10:53:00.626Z,58.04
2022-11-30T10:55:31.952Z,58.74
2022-11-30T10:58:28.230Z,58.14
2022-11-30T11:01:28.763Z,57.77
2022-11-30T11:04:08.530Z,58.78
2022-11-30T11:06:35.981Z,59.57
2022-11-30T11:09:30.801Z,56.53
2022-11-30T11:11:59.550Z,59.68
2022-11-30T11:14:28.671Z,57.98
2022-11-30T11:17:18.228Z,57.84
2022-11-30T11:19:47.064Z,60.19
2022-11-30T11:22:23.861Z,59.41
2022-11-30T11:24:54.164Z,60.84
2022-11-30T11:27:31.994Z,60.06
2022-11-30T11:30:07.968Z,60.13
2022-11-30T11:32:34.994Z,59.22
2022-11-30T11:35:02.004Z,58.95
2022-11-30T11:37:33.435Z,59.26
2022-11-30T11:40:05.728Z,58.33
2022-11-30T11:42:37.001Z,58.84
2022-11-30T11:45:05.066Z,57.81
2022-11-30T11:47:41.057Z,57.10
2022-11-30T11:51:04.494Z,57.86
2022-11-30T11:53:22.885Z,56.57
2022-11-30T11:56:15.958Z,57.51
2022-11-30T11:58:51.016Z,59.30
2022-11-30T12:01:55.564Z,60.06
2022-11-30T12:04:45.141Z,61.16
2022-11-30T12:07:23.268Z,61.98
2022-11-30T12:10:49.533Z,60.85
2022-11-30T12:13:02.633Z,60.60
2022-11-30T12:15:39.459Z,60.75
2022-11-30T12:18:26.036Z,62.06
2022-11-30T12:20:57.108Z,61.77
2022-11-30T12:23:26.751Z,61.50
2022-11-30T12:26:16.628Z,60.78
2022-11-30T12:28:49.654Z,59.23
2022-11-30T12:31:18.624Z,60.17
2022-11-30T12:34:13.815Z,59.93
2022-11-30T12:37:23.507Z,57.85
2022-11-30T12:40:11.851Z,59.33
2022-11-30T12:42:47.861Z,60.37
2022-11-30T12:45:32.836Z,60.67
2022-11-30T12:48:21.245Z,59.62
2022-11-30T12:51:25.057Z,60.72
2022-11-30T12:54:09.508Z,60.81
2022-11-30T12:56:45.927Z,58.86
2022-11-30T12:59:24.738Z,56.77
2022-11-30T13:02:19.125Z,59.14
2022-11-30T13:05:06.650Z,59.68
2022-11-30T13:07:43.549Z,59.65
2022-11-30T13:10:37.125Z,58.41
2022-11-30T13:13:05.118Z,57.67
2022-11-30T13:15:34.486Z,57.50
2022-11-30T13:18:04.850Z,55.08
2022-11-30T13:20:43.023Z,57.51
2022-11-30T13:23:31.790Z,59.26
2022-11-30T13:26:32.560Z,60.24
2022-11-30T13:29:41.745Z,59.79
2022-11-30T13:32:33.948Z,61.07
2022-11-30T13:35:30.105Z,60.68
2022-11-30T13:41:05.064Z,61.01
2022-11-30T13:43:44.716Z,61.69
2022-11-30T13:46:12.489Z,61.66
2022-11-30T13:48:43.897Z,61.63
2022-11-30T13:51:11.150Z,63.79
2022-11-30T13:53:39.215Z,63.09
2022-11-30T13:56:18.444Z,62.06
2022-11-30T13:59:25.758Z,58.82
2022-11-30T14:04:46.316Z,62.88
2022-11-30T14:07:38.562Z,62.42
2022-11-30T14:10:38.033Z,61.93
2022-11-30T14:13:10.864Z,62.78
2022-11-30T14:15:43.462Z,64.35
2022-11-30T14:18:10.276Z,62.88
2022-11-30T14:20:39.828Z,64.68
2022-11-30T14:23:35.747Z,63.26
2022-11-30T14:26:11.701Z,63.44
2022-11-30T14:28:47.549Z,63.96
2022-11-30T14:31:22.602Z,61.69
2022-11-30T14:34:03.042Z,63.75
2022-11-30T14:36:39.985Z,64.66
2022-11-30T14:39:26.643Z,63.29
2022-11-30T14:41:54.241Z,68.43
2022-11-30T14:44:21.150Z,69.08
2022-11-30T14:46:48.627Z,71.08
2022-11-30T14:49:17.929Z,67.69
2022-11-30T14:51:53.712Z,70.76
2022-11-30T14:54:42.329Z,74.55
2022-11-30T14:57:24.723Z,72.86
2022-11-30T14:59:55.516Z,73.96
2022-11-30T15:02:42.740Z,70.66
2022-11-30T15:05:15.590Z,72.02
2022-11-30T15:07:43.715Z,71.86
2022-11-30T15:10:15.291Z,70.80
2022-11-30T15:12:44.936Z,70.26
2022-11-30T15:15:18.221Z,68.87
2022-11-30T15:17:59.525Z,69.84
2022-11-30T15:20:29.890Z,68.09
2022-11-30T15:23:00.650Z,68.52
2022-11-30T15:25:40.670Z,66.60
2022-11-30T15:28:07.985Z,66.51
2022-11-30T15:30:41.594Z,68.29
2022-11-30T15:33:18.769Z,69.05
2022-11-30T15:36:13.608Z,70.12
2022-11-30T15:38:34.321Z,70.36
2022-11-30T15:41:06.291Z,67.00
2022-11-30T15:43:37.619Z,66.28
2022-11-30T15:46:05.235Z,66.72
2022-11-30T15:48:39.991Z,70.34
2022-11-30T15:51:07.195Z,69.47
2022-11-30T15:53:51.302Z,66.71
2022-11-30T15:56:26.098Z,66.40
2022-11-30T15:59:22.274Z,66.64
2022-11-30T16:02:09.065Z,65.04
2022-11-30T16:04:57.700Z,66.37
2022-11-30T16:07:39.033Z,66.32
2022-11-30T16:10:36.430Z,67.98
2022-11-30T16:13:04.347Z,68.84
2022-11-30T16:15:37.973Z,68.67
2022-11-30T16:18:16.476Z,70.54
2022-11-30T16:20:44.296Z,70.96
2022-11-30T16:23:15.319Z,73.64
2022-11-30T16:25:43.309Z,73.29
2022-11-30T16:28:11.334Z,76.30
2022-11-30T16:30:38.573Z,74.79
2022-11-30T16:33:05.957Z,74.36
2022-11-30T16:35:56.873Z,79.76
2022-11-30T16:38:25.055Z,77.84
2022-11-30T16:40:54.271Z,74.98
2022-11-30T16:43:22.582Z,77.56
2022-11-30T16:45:51.038Z,78.86
2022-11-30T16:48:18.334Z,78.46
2022-11-30T16:50:45.534Z,79.13
2022-11-30T16:53:15.286Z,79.09
2022-11-30T16:55:42.684Z,77.90
2022-11-30T16:58:09.650Z,78.62
2022-11-30T17:00:38.661Z,75.88
2022-11-30T17:03:15.669Z,75.82
2022-11-30T17:05:42.580Z,75.55
2022-11-30T17:08:10.440Z,71.78
2022-11-30T17:10:38.224Z,70.05
2022-11-30T17:13:05.657Z,72.33
2022-11-30T17:15:32.646Z,69.94
2022-11-30T17:17:59.576Z,70.85
2022-11-30T17:20:27.408Z,74.77
2022-11-30T17:22:54.283Z,78.14
2022-11-30T17:25:23.240Z,77.52
2022-11-30T17:27:50.699Z,77.76
2022-11-30T17:30:20.066Z,74.10
2022-11-30T17:32:47.237Z,71.13
2022-11-30T17:35:14.668Z,69.92
2022-11-30T17:37:41.607Z,73.93
2022-11-30T17:40:12.826Z,72.81
2022-11-30T17:42:40.836Z,72.35
2022-11-30T17:45:08.353Z,71.36
2022-11-30T17:47:35.214Z,73.85
2022-11-30T17:50:02.464Z,74.88
2022-11-30T17:52:29.392Z,70.36
2022-11-30T17:54:56.273Z,70.48
2022-11-30T17:57:23.169Z,70.01
2022-11-30T17:59:50.252Z,70.92
2022-11-30T18:02:17.156Z,73.54
2022-11-30T18:04:44.012Z,74.60
2022-11-30T18:07:10.714Z,72.92
2022-11-30T18:09:42.315Z,75.42
2022-11-30T18:12:10.087Z,73.74
2022-11-30T18:14:36.998Z,80.20
2022-11-30T18:17:03.938Z,78.24
2022-11-30T18:19:30.855Z,76.71
2022-11-30T18:21:57.704Z,80.30
2022-11-30T18:24:25.765Z,76.82
2022-11-30T18:26:53.136Z,78.50
2022-11-30T18:29:20.130Z,81.03
2022-11-30T18:31:48.636Z,81.41
2022-11-30T18:34:15.739Z,81.70
2022-11-30T18:36:42.921Z,79.19
2022-11-30T18:39:09.939Z,84.04
2022-11-30T18:41:37.135Z,87.48
2022-11-30T18:44:04.140Z,87.76
2022-11-30T18:46:31.304Z,87.35
2022-11-30T18:48:59.676Z,87.75
2022-11-30T18:51:28.157Z,89.14
2022-11-30T18:54:00.381Z,92.23
2022-11-30T18:56:30.104Z,88.65
2022-11-30T18:58:58.597Z,89.55
2022-11-30T19:01:26.288Z,88.12
2022-11-30T19:03:56.957Z,88.89
2022-11-30T19:06:32.822Z,88.64
2022-11-30T19:09:01.778Z,87.21
2022-11-30T19:11:28.721Z,84.95
2022-11-30T19:13:57.418Z,91.35
2022-11-30T19:16:25.644Z,89.50
2022-11-30T19:18:53.674Z,93.06
2022-11-30T19:21:22.081Z,91.50
2022-11-30T19:23:49.838Z,90.02
2022-11-30T19:26:16.885Z,93.11
2022-11-30T19:28:44.675Z,95.04
2022-11-30T19:31:18.930Z,96.22
2022-11-30T19:33:48.525Z,91.74
2022-11-30T19:36:21.597Z,88.79
2022-11-30T19:38:49.968Z,89.30
2022-11-30T19:41:17.103Z,88.46
2022-11-30T19:43:49.228Z,86.71
2022-11-30T19:46:20.024Z,85.33
2022-11-30T19:48:46.991Z,90.46
2022-11-30T19:51:18.449Z,89.63
2022-11-30T19:53:46.218Z,90.83
2022-11-30T19:56:15.349Z,90.47
2022-11-30T19:58:44.060Z,88.79
2022-11-30T20:01:15.705Z,94.87
2022-11-30T20:03:44.543Z,97.75
2022-11-30T20:06:12.272Z,98.83
2022-11-30T20:08:39.525Z,95.14
2022-11-30T20:11:09.784Z,91.11
2022-11-30T20:13:36.797Z,83.28
2022-11-30T20:16:12.096Z,82.77
2022-11-30T20:18:44.164Z,85.99
2022-11-30T20:21:18.511Z,84.04
2022-11-30T20:23:47.349Z,82.38
2022-11-30T20:26:22.534Z,82.58
2022-11-30T20:28:50.676Z,82.71
2022-11-30T20:31:19.814Z,79.69
2022-11-30T20:33:46.934Z,79.70
2022-11-30T20:36:14.159Z,76.35
2022-11-30T20:38:41.149Z,77.23
2022-11-30T20:41:26.342Z,85.18
2022-11-30T20:43:53.431Z,89.67
2022-11-30T20:46:27.313Z,89.04
2022-11-30T20:48:54.771Z,90.21
2022-11-30T20:51:31.809Z,90.68
2022-11-30T20:54:01.249Z,90.30
2022-11-30T20:56:28.181Z,87.40
2022-11-30T20:58:55.138Z,85.77
2022-11-30T21:01:22.825Z,82.29
2022-11-30T21:03:49.775Z,81.24
2022-11-30T21:06:16.796Z,77.63
2022-11-30T21:08:43.993Z,76.11
2022-11-30T21:11:13.972Z,71.95
2022-11-30T21:13:43.097Z,67.83
2022-11-30T21:16:10.887Z,66.37
2022-11-30T21:18:39.414Z,65.08
2022-11-30T21:21:12.398Z,63.55
2022-11-30T21:23:39.451Z,61.81
2022-11-30T21:26:14.327Z,61.50
2022-11-30T21:28:41.406Z,61.10
2022-11-30T21:31:08.344Z,57.63
2022-11-30T21:33:35.263Z,58.23
2022-11-30T21:36:07.549Z,59.57
2022-11-30T21:38:34.787Z,59.36
2022-11-30T21:41:02.426Z,61.50
2022-11-30T21:43:30.281Z,59.50
2022-11-30T21:46:05.309Z,59.09
2022-11-30T21:48:34.859Z,56.90
2022-11-30T21:51:03.976Z,58.25
2022-11-30T21:53:31.684Z,56.44
2022-11-30T21:56:06.450Z,56.75
2022-11-30T21:58:33.983Z,58.26
2022-11-30T22:01:03.055Z,58.95
2022-11-30T22:03:30.178Z,55.11
2022-11-30T22:06:00.191Z,56.29
2022-11-30T22:08:27.465Z,58.43
2022-11-30T22:11:02.502Z,59.64
2022-11-30T22:13:30.526Z,58.73
2022-11-30T22:16:02.179Z,62.02
2022-11-30T22:18:29.422Z,62.39
2022-11-30T22:21:07.616Z,66.64
2022-11-30T22:23:35.523Z,65.85
2022-11-30T22:26:08.782Z,67.44
2022-11-30T22:28:35.864Z,66.95
2022-11-30T22:31:06.578Z,67.30
2022-11-30T22:33:35.339Z,68.42
2022-11-30T22:36:03.539Z,65.59
2022-11-30T22:38:30.763Z,64.79
2022-11-30T22:41:05.638Z,63.73
2022-11-30T22:43:32.558Z,63.39
2022-11-30T22:46:09.776Z,62.42
2022-11-30T22:48:37.119Z,62.29
2022-11-30T22:51:09.947Z,64.24
2022-11-30T22:53:37.399Z,62.82
2022-11-30T22:56:08.650Z,62.56
2022-11-30T22:58:35.786Z,62.67
2022-11-30T23:01:17.637Z,64.81
2022-11-30T23:03:46.041Z,66.48
2022-11-30T23:06:14.233Z,67.86
2022-11-30T23:08:42.266Z,66.57
2022-11-30T23:11:12.577Z,68.30
2022-11-30T23:13:40.776Z,70.63
2022-11-30T23:16:08.661Z,73.27
2022-11-30T23:18:43.360Z,76.43
2022-11-30T23:21:13.572Z,76.79
2022-11-30T23:23:41.819Z,78.41
2022-11-30T23:26:10.920Z,74.86
2022-11-30T23:28:41.210Z,73.49
2022-11-30T23:31:10.343Z,74.32
2022-11-30T23:33:57.149Z,72.31
2022-11-30T23:36:24.000Z,69.44
2022-11-30T23:39:20.257Z,69.84
2022-11-30T23:41:47.642Z,69.56
2022-11-30T23:44:14.621Z,69.92
2022-11-30T23:46:41.621Z,69.23
2022-11-30T23:49:09.592Z,72.34
2022-11-30T23:51:36.690Z,69.77
2022-11-30T23:54:03.837Z,72.66
2022-11-30T23:56:30.746Z,69.48
2022-11-30T23:58:58.637Z,72.35
